sensor_id;sensor_type;location;lat;lon;timestamp;pressure;altitude;pressure_sealevel;temperature;humidity
55277;BME280;41136;51.478;-2.610;2023-03-14T00:01:43;98194.78;;;4.55;100.00
55277;BME280;41136;51.478;-2.610;2023-03-14T00:04:08;98206.79;;;4.49;100.00
55277;BME280;41136;51.478;-2.610;2023-03-14T00:06:35;98212.41;;;3.81;100.00
55277;BME280;41136;51.478;-2.610;2023-03-14T00:08:59;98217.79;;;4.57;100.00
55277;BME280;41136;51.478;-2.610;2023-03-14T00:11:25;98226.37;;;4.82;100.00
55277;BME280;41136;51.478;-2.610;2023-03-14T00:13:51;98223.94;;;4.15;100.00
55277;BME280;41136;51.478;-2.610;2023-03-14T00:16:15;98236.24;;;4.44;100.00
55277;BME280;41136;51.478;-2.610;2023-03-14T00:18:41;98247.53;;;4.21;100.00
55277;BME280;41136;51.478;-2.610;2023-03-14T00:21:08;98264.29;;;3.60;100.00
55277;BME280;41136;51.478;-2.610;2023-03-14T00:23:33;98275.63;;;3.89;100.00
55277;BME280;41136;51.478;-2.610;2023-03-14T00:25:59;98289.95;;;3.39;100.00
55277;BME280;41136;51.478;-2.610;2023-03-14T00:28:22;98294.27;;;3.69;100.00
55277;BME280;41136;51.478;-2.610;2023-03-14T00:30:48;98298.45;;;3.68;100.00
55277;BME280;41136;51.478;-2.610;2023-03-14T00:33:13;98311.40;;;3.57;100.00
55277;BME280;41136;51.478;-2.610;2023-03-14T00:35:38;98325.26;;;3.57;100.00
55277;BME280;41136;51.478;-2.610;2023-03-14T00:38:04;98335.38;;;3.66;100.00
55277;BME280;41136;51.478;-2.610;2023-03-14T00:40:29;98346.13;;;3.45;100.00
55277;BME280;41136;51.478;-2.610;2023-03-14T00:42:55;98358.55;;;3.61;100.00
55277;BME280;41136;51.478;-2.610;2023-03-14T00:45:20;98355.97;;;3.75;100.00
55277;BME280;41136;51.478;-2.610;2023-03-14T00:47:45;98368.42;;;3.12;100.00
55277;BME280;41136;51.478;-2.610;2023-03-14T00:50:11;98371.56;;;3.40;100.00
55277;BME280;41136;51.478;-2.610;2023-03-14T00:52:36;98383.95;;;3.68;100.00
55277;BME280;41136;51.478;-2.610;2023-03-14T00:55:02;98393.98;;;3.51;100.00
55277;BME280;41136;51.478;-2.610;2023-03-14T00:57:27;98402.15;;;3.73;100.00
55277;BME280;41136;51.478;-2.610;2023-03-14T00:59:53;98408.53;;;3.76;100.00
55277;BME280;41136;51.478;-2.610;2023-03-14T01:02:18;98412.32;;;3.99;100.00
55277;BME280;41136;51.478;-2.610;2023-03-14T01:04:43;98415.77;;;4.53;100.00
55277;BME280;41136;51.478;-2.610;2023-03-14T01:07:09;98426.00;;;4.76;100.00
55277;BME280;41136;51.478;-2.610;2023-03-14T01:09:34;98426.48;;;4.85;100.00
55277;BME280;41136;51.478;-2.610;2023-03-14T01:12:00;98442.93;;;4.02;100.00
55277;BME280;41136;51.478;-2.610;2023-03-14T01:14:25;98449.11;;;3.55;100.00
55277;BME280;41136;51.478;-2.610;2023-03-14T01:16:51;98461.13;;;4.03;100.00
55277;BME280;41136;51.478;-2.610;2023-03-14T01:19:16;98470.60;;;3.59;100.00
55277;BME280;41136;51.478;-2.610;2023-03-14T01:21:41;98474.51;;;3.79;100.00
55277;BME280;41136;51.478;-2.610;2023-03-14T01:24:07;98482.24;;;3.94;100.00
55277;BME280;41136;51.478;-2.610;2023-03-14T01:26:34;98486.13;;;3.59;100.00
55277;BME280;41136;51.478;-2.610;2023-03-14T01:28:58;98498.10;;;3.28;100.00
55277;BME280;41136;51.478;-2.610;2023-03-14T01:31:24;98505.62;;;3.41;100.00
55277;BME280;41136;51.478;-2.610;2023-03-14T01:33:49;98506.42;;;4.31;100.00
55277;BME280;41136;51.478;-2.610;2023-03-14T01:36:14;98515.77;;;3.24;100.00
55277;BME280;41136;51.478;-2.610;2023-03-14T01:38:40;98521.67;;;3.97;100.00
55277;BME280;41136;51.478;-2.610;2023-03-14T01:41:05;98529.23;;;4.48;100.00
55277;BME280;41136;51.478;-2.610;2023-03-14T01:43:30;98534.86;;;4.22;100.00
55277;BME280;41136;51.478;-2.610;2023-03-14T01:48:21;98550.22;;;3.98;100.00
55277;BME280;41136;51.478;-2.610;2023-03-14T01:50:46;98564.47;;;3.85;100.00
55277;BME280;41136;51.478;-2.610;2023-03-14T01:53:11;98569.72;;;4.61;100.00
55277;BME280;41136;51.478;-2.610;2023-03-14T01:55:37;98574.37;;;4.62;100.00
55277;BME280;41136;51.478;-2.610;2023-03-14T01:58:04;98566.66;;;5.49;100.00
55277;BME280;41136;51.478;-2.610;2023-03-14T02:00:28;98564.63;;;5.56;100.00
55277;BME280;41136;51.478;-2.610;2023-03-14T02:02:56;98571.69;;;5.72;100.00
55277;BME280;41136;51.478;-2.610;2023-03-14T02:05:23;98580.37;;;5.76;100.00
55277;BME280;41136;51.478;-2.610;2023-03-14T02:07:48;98582.76;;;5.55;100.00
55277;BME280;41136;51.478;-2.610;2023-03-14T02:10:10;98585.63;;;5.13;100.00
55277;BME280;41136;51.478;-2.610;2023-03-14T02:12:35;98592.88;;;5.34;100.00
55277;BME280;41136;51.478;-2.610;2023-03-14T02:15:00;98595.97;;;5.26;100.00
55277;BME280;41136;51.478;-2.610;2023-03-14T02:17:25;98602.49;;;4.79;100.00
55277;BME280;41136;51.478;-2.610;2023-03-14T02:20:03;98604.31;;;4.43;100.00
55277;BME280;41136;51.478;-2.610;2023-03-14T02:22:16;98608.25;;;4.10;100.00
55277;BME280;41136;51.478;-2.610;2023-03-14T02:24:46;98608.29;;;4.38;100.00
55277;BME280;41136;51.478;-2.610;2023-03-14T02:27:10;98615.33;;;4.76;100.00
55277;BME280;41136;51.478;-2.610;2023-03-14T02:29:33;98620.43;;;4.05;100.00
55277;BME280;41136;51.478;-2.610;2023-03-14T02:31:58;98627.29;;;4.27;100.00
55277;BME280;41136;51.478;-2.610;2023-03-14T02:34:24;98631.69;;;3.85;100.00
55277;BME280;41136;51.478;-2.610;2023-03-14T02:36:49;98633.85;;;3.94;100.00
55277;BME280;41136;51.478;-2.610;2023-03-14T02:39:18;98636.03;;;4.50;100.00
55277;BME280;41136;51.478;-2.610;2023-03-14T02:41:39;98639.85;;;3.83;100.00
55277;BME280;41136;51.478;-2.610;2023-03-14T02:44:05;98647.51;;;4.21;100.00
55277;BME280;41136;51.478;-2.610;2023-03-14T02:46:30;98650.60;;;4.34;100.00
55277;BME280;41136;51.478;-2.610;2023-03-14T02:48:58;98652.61;;;4.12;100.00
55277;BME280;41136;51.478;-2.610;2023-03-14T02:53:30;98668.40;;;4.22;100.00
55277;BME280;41136;51.478;-2.610;2023-03-14T02:55:53;98672.34;;;4.18;100.00
55277;BME280;41136;51.478;-2.610;2023-03-14T02:58:19;98680.45;;;4.40;100.00
55277;BME280;41136;51.478;-2.610;2023-03-14T03:00:44;98685.68;;;5.03;100.00
55277;BME280;41136;51.478;-2.610;2023-03-14T03:03:09;98692.97;;;5.06;100.00
55277;BME280;41136;51.478;-2.610;2023-03-14T03:05:35;98690.71;;;4.83;100.00
55277;BME280;41136;51.478;-2.610;2023-03-14T03:08:00;98699.12;;;4.74;100.00
55277;BME280;41136;51.478;-2.610;2023-03-14T03:10:26;98699.46;;;3.97;100.00
55277;BME280;41136;51.478;-2.610;2023-03-14T03:12:51;98705.93;;;4.12;100.00
55277;BME280;41136;51.478;-2.610;2023-03-14T03:15:17;98714.29;;;4.48;100.00
55277;BME280;41136;51.478;-2.610;2023-03-14T03:17:42;98709.77;;;4.41;100.00
55277;BME280;41136;51.478;-2.610;2023-03-14T03:20:09;98713.55;;;4.20;100.00
55277;BME280;41136;51.478;-2.610;2023-03-14T03:22:33;98714.45;;;4.50;100.00
55277;BME280;41136;51.478;-2.610;2023-03-14T03:24:58;98717.46;;;4.00;100.00
55277;BME280;41136;51.478;-2.610;2023-03-14T03:27:24;98719.65;;;4.27;100.00
55277;BME280;41136;51.478;-2.610;2023-03-14T03:29:49;98728.45;;;4.45;100.00
55277;BME280;41136;51.478;-2.610;2023-03-14T03:32:14;98733.66;;;5.00;100.00
55277;BME280;41136;51.478;-2.610;2023-03-14T03:34:39;98744.64;;;4.59;100.00
55277;BME280;41136;51.478;-2.610;2023-03-14T03:37:05;98741.43;;;4.15;100.00
55277;BME280;41136;51.478;-2.610;2023-03-14T03:39:30;98749.88;;;5.03;100.00
55277;BME280;41136;51.478;-2.610;2023-03-14T03:41:56;98750.36;;;4.61;100.00
55277;BME280;41136;51.478;-2.610;2023-03-14T03:44:21;98759.06;;;4.46;100.00
55277;BME280;41136;51.478;-2.610;2023-03-14T03:46:47;98767.00;;;4.53;100.00
55277;BME280;41136;51.478;-2.610;2023-03-14T03:49:12;98771.99;;;4.57;100.00
55277;BME280;41136;51.478;-2.610;2023-03-14T03:51:39;98783.88;;;4.61;100.00
55277;BME280;41136;51.478;-2.610;2023-03-14T03:54:03;98788.39;;;4.64;100.00
55277;BME280;41136;51.478;-2.610;2023-03-14T03:56:28;98785.94;;;4.35;100.00
55277;BME280;41136;51.478;-2.610;2023-03-14T03:58:54;98790.10;;;4.59;100.00
55277;BME280;41136;51.478;-2.610;2023-03-14T04:01:19;98789.51;;;4.30;100.00
55277;BME280;41136;51.478;-2.610;2023-03-14T04:03:45;98799.99;;;4.14;100.00
55277;BME280;41136;51.478;-2.610;2023-03-14T04:06:12;98804.46;;;4.07;100.00
55277;BME280;41136;51.478;-2.610;2023-03-14T04:08:35;98814.39;;;4.38;100.00
55277;BME280;41136;51.478;-2.610;2023-03-14T04:11:02;98814.88;;;4.22;100.00
55277;BME280;41136;51.478;-2.610;2023-03-14T04:13:27;98822.63;;;4.14;100.00
55277;BME280;41136;51.478;-2.610;2023-03-14T04:15:52;98833.39;;;3.66;100.00
55277;BME280;41136;51.478;-2.610;2023-03-14T04:18:17;98839.42;;;4.18;100.00
55277;BME280;41136;51.478;-2.610;2023-03-14T04:20:43;98841.83;;;3.72;100.00
55277;BME280;41136;51.478;-2.610;2023-03-14T04:23:08;98849.52;;;4.33;100.00
55277;BME280;41136;51.478;-2.610;2023-03-14T04:25:33;98858.49;;;3.63;100.00
55277;BME280;41136;51.478;-2.610;2023-03-14T04:27:58;98865.88;;;3.58;100.00
55277;BME280;41136;51.478;-2.610;2023-03-14T04:30:24;98873.82;;;3.20;100.00
55277;BME280;41136;51.478;-2.610;2023-03-14T04:32:50;98880.86;;;3.31;100.00
55277;BME280;41136;51.478;-2.610;2023-03-14T04:35:15;98882.87;;;3.32;100.00
55277;BME280;41136;51.478;-2.610;2023-03-14T04:37:40;98890.07;;;3.88;100.00
55277;BME280;41136;51.478;-2.610;2023-03-14T04:40:07;98889.36;;;3.54;100.00
55277;BME280;41136;51.478;-2.610;2023-03-14T04:42:31;98899.65;;;4.01;100.00
55277;BME280;41136;51.478;-2.610;2023-03-14T04:44:57;98895.28;;;3.81;100.00
55277;BME280;41136;51.478;-2.610;2023-03-14T04:47:22;98908.74;;;3.97;100.00
55277;BME280;41136;51.478;-2.610;2023-03-14T04:49:47;98917.52;;;4.11;100.00
55277;BME280;41136;51.478;-2.610;2023-03-14T04:52:13;98918.54;;;4.28;100.00
55277;BME280;41136;51.478;-2.610;2023-03-14T04:54:38;98921.88;;;3.77;100.00
55277;BME280;41136;51.478;-2.610;2023-03-14T04:57:04;98928.20;;;3.17;100.00
55277;BME280;41136;51.478;-2.610;2023-03-14T04:59:29;98923.26;;;3.23;100.00
55277;BME280;41136;51.478;-2.610;2023-03-14T05:01:55;98916.71;;;3.20;100.00
55277;BME280;41136;51.478;-2.610;2023-03-14T05:04:20;98915.31;;;3.59;100.00
55277;BME280;41136;51.478;-2.610;2023-03-14T05:06:46;98918.64;;;3.40;100.00
55277;BME280;41136;51.478;-2.610;2023-03-14T05:09:11;98917.98;;;3.30;100.00
55277;BME280;41136;51.478;-2.610;2023-03-14T05:11:36;98912.37;;;3.39;100.00
55277;BME280;41136;51.478;-2.610;2023-03-14T05:14:02;98913.96;;;3.73;100.00
55277;BME280;41136;51.478;-2.610;2023-03-14T05:16:27;98913.71;;;4.52;100.00
55277;BME280;41136;51.478;-2.610;2023-03-14T05:18:53;98921.53;;;4.23;100.00
55277;BME280;41136;51.478;-2.610;2023-03-14T05:21:18;98915.49;;;4.41;100.00
55277;BME280;41136;51.478;-2.610;2023-03-14T05:23:44;98909.27;;;5.14;100.00
55277;BME280;41136;51.478;-2.610;2023-03-14T05:26:09;98915.06;;;4.42;100.00
55277;BME280;41136;51.478;-2.610;2023-03-14T05:28:35;98928.20;;;4.34;100.00
55277;BME280;41136;51.478;-2.610;2023-03-14T05:31:00;98924.71;;;3.99;100.00
55277;BME280;41136;51.478;-2.610;2023-03-14T05:33:26;98937.04;;;3.54;100.00
55277;BME280;41136;51.478;-2.610;2023-03-14T05:35:51;98944.65;;;4.15;100.00
55277;BME280;41136;51.478;-2.610;2023-03-14T05:38:16;98941.27;;;4.22;100.00
55277;BME280;41136;51.478;-2.610;2023-03-14T05:40:41;98953.40;;;4.31;100.00
55277;BME280;41136;51.478;-2.610;2023-03-14T05:43:07;98966.30;;;4.21;100.00
55277;BME280;41136;51.478;-2.610;2023-03-14T05:47:53;98988.89;;;3.68;100.00
55277;BME280;41136;51.478;-2.610;2023-03-14T05:50:19;98996.04;;;4.22;100.00
55277;BME280;41136;51.478;-2.610;2023-03-14T05:52:44;98997.52;;;4.90;100.00
55277;BME280;41136;51.478;-2.610;2023-03-14T05:55:10;99012.29;;;4.32;100.00
55277;BME280;41136;51.478;-2.610;2023-03-14T05:57:35;99018.28;;;5.16;100.00
55277;BME280;41136;51.478;-2.610;2023-03-14T06:00:01;99017.35;;;5.15;100.00
55277;BME280;41136;51.478;-2.610;2023-03-14T06:02:26;99028.45;;;5.81;100.00
55277;BME280;41136;51.478;-2.610;2023-03-14T06:04:52;99034.14;;;4.96;100.00
55277;BME280;41136;51.478;-2.610;2023-03-14T06:07:17;99039.17;;;5.00;100.00
55277;BME280;41136;51.478;-2.610;2023-03-14T06:09:42;99042.71;;;5.14;100.00
55277;BME280;41136;51.478;-2.610;2023-03-14T06:12:08;99047.48;;;5.98;100.00
55277;BME280;41136;51.478;-2.610;2023-03-14T06:14:33;99046.40;;;4.65;100.00
55277;BME280;41136;51.478;-2.610;2023-03-14T06:16:59;99053.70;;;5.29;100.00
55277;BME280;41136;51.478;-2.610;2023-03-14T06:19:24;99061.28;;;5.20;100.00
55277;BME280;41136;51.478;-2.610;2023-03-14T06:21:50;99063.39;;;5.32;100.00
55277;BME280;41136;51.478;-2.610;2023-03-14T06:24:15;99075.31;;;5.53;100.00
55277;BME280;41136;51.478;-2.610;2023-03-14T06:26:40;99087.09;;;5.23;100.00
55277;BME280;41136;51.478;-2.610;2023-03-14T06:29:06;99099.08;;;4.84;100.00
55277;BME280;41136;51.478;-2.610;2023-03-14T06:31:32;99103.72;;;4.77;100.00
55277;BME280;41136;51.478;-2.610;2023-03-14T06:33:57;99103.85;;;4.60;100.00
55277;BME280;41136;51.478;-2.610;2023-03-14T06:36:22;99103.35;;;4.92;100.00
55277;BME280;41136;51.478;-2.610;2023-03-14T06:38:48;99116.95;;;4.62;100.00
55277;BME280;41136;51.478;-2.610;2023-03-14T06:41:13;99118.13;;;4.89;100.00
55277;BME280;41136;51.478;-2.610;2023-03-14T06:43:38;99117.05;;;4.82;100.00
55277;BME280;41136;51.478;-2.610;2023-03-14T06:46:04;99120.82;;;5.22;100.00
55277;BME280;41136;51.478;-2.610;2023-03-14T06:48:29;99129.12;;;5.13;100.00
55277;BME280;41136;51.478;-2.610;2023-03-14T06:50:55;99136.13;;;4.54;100.00
55277;BME280;41136;51.478;-2.610;2023-03-14T06:53:20;99149.78;;;4.76;100.00
55277;BME280;41136;51.478;-2.610;2023-03-14T06:55:45;99160.10;;;4.92;100.00
55277;BME280;41136;51.478;-2.610;2023-03-14T06:58:11;99161.70;;;5.14;100.00
55277;BME280;41136;51.478;-2.610;2023-03-14T07:00:36;99165.30;;;4.54;100.00
55277;BME280;41136;51.478;-2.610;2023-03-14T07:03:02;99168.74;;;4.82;100.00
55277;BME280;41136;51.478;-2.610;2023-03-14T07:05:28;99175.39;;;4.66;100.00
55277;BME280;41136;51.478;-2.610;2023-03-14T07:07:53;99183.65;;;4.38;100.00
55277;BME280;41136;51.478;-2.610;2023-03-14T07:10:18;99186.69;;;4.89;100.00
55277;BME280;41136;51.478;-2.610;2023-03-14T07:12:44;99192.66;;;5.56;100.00
55277;BME280;41136;51.478;-2.610;2023-03-14T07:15:10;99198.92;;;5.30;100.00
55277;BME280;41136;51.478;-2.610;2023-03-14T07:17:34;99206.96;;;5.13;100.00
55277;BME280;41136;51.478;-2.610;2023-03-14T07:20:00;99212.29;;;4.91;100.00
55277;BME280;41136;51.478;-2.610;2023-03-14T07:22:25;99219.57;;;5.05;100.00
55277;BME280;41136;51.478;-2.610;2023-03-14T07:24:51;99224.00;;;4.90;100.00
55277;BME280;41136;51.478;-2.610;2023-03-14T07:27:16;99230.95;;;5.32;100.00
55277;BME280;41136;51.478;-2.610;2023-03-14T07:29:41;99243.93;;;4.92;100.00
55277;BME280;41136;51.478;-2.610;2023-03-14T07:32:07;99253.27;;;5.43;100.00
55277;BME280;41136;51.478;-2.610;2023-03-14T07:34:32;99262.09;;;5.18;100.00
55277;BME280;41136;51.478;-2.610;2023-03-14T07:36:58;99279.60;;;5.25;100.00
55277;BME280;41136;51.478;-2.610;2023-03-14T07:39:23;99299.27;;;5.41;100.00
55277;BME280;41136;51.478;-2.610;2023-03-14T07:41:49;99305.46;;;4.75;100.00
55277;BME280;41136;51.478;-2.610;2023-03-14T07:44:14;99317.01;;;4.63;100.00
55277;BME280;41136;51.478;-2.610;2023-03-14T07:46:40;99325.35;;;4.02;100.00
55277;BME280;41136;51.478;-2.610;2023-03-14T07:49:05;99340.03;;;3.37;100.00
55277;BME280;41136;51.478;-2.610;2023-03-14T07:51:30;99350.21;;;4.59;100.00
55277;BME280;41136;51.478;-2.610;2023-03-14T07:53:56;99351.84;;;4.45;100.00
55277;BME280;41136;51.478;-2.610;2023-03-14T07:56:21;99361.31;;;4.57;100.00
55277;BME280;41136;51.478;-2.610;2023-03-14T07:58:47;99379.99;;;4.31;100.00
55277;BME280;41136;51.478;-2.610;2023-03-14T08:01:12;99387.80;;;4.44;100.00
55277;BME280;41136;51.478;-2.610;2023-03-14T08:03:38;99396.36;;;4.30;100.00
55277;BME280;41136;51.478;-2.610;2023-03-14T08:06:03;99398.85;;;4.25;100.00
55277;BME280;41136;51.478;-2.610;2023-03-14T08:08:28;99416.18;;;4.30;100.00
55277;BME280;41136;51.478;-2.610;2023-03-14T08:10:54;99425.07;;;4.21;100.00
55277;BME280;41136;51.478;-2.610;2023-03-14T08:13:19;99431.65;;;4.62;100.00
55277;BME280;41136;51.478;-2.610;2023-03-14T08:15:47;99442.63;;;5.12;100.00
55277;BME280;41136;51.478;-2.610;2023-03-14T08:18:10;99455.98;;;5.00;100.00
55277;BME280;41136;51.478;-2.610;2023-03-14T08:20:36;99466.40;;;5.24;100.00
55277;BME280;41136;51.478;-2.610;2023-03-14T08:23:01;99468.66;;;5.31;100.00
55277;BME280;41136;51.478;-2.610;2023-03-14T08:25:32;99476.75;;;5.11;100.00
55277;BME280;41136;51.478;-2.610;2023-03-14T08:27:52;99480.18;;;4.41;100.00
55277;BME280;41136;51.478;-2.610;2023-03-14T08:30:19;99489.52;;;3.29;100.00
55277;BME280;41136;51.478;-2.610;2023-03-14T08:32:43;99498.50;;;3.33;100.00
55277;BME280;41136;51.478;-2.610;2023-03-14T08:35:09;99505.53;;;3.73;100.00
55277;BME280;41136;51.478;-2.610;2023-03-14T08:37:35;99518.88;;;3.15;100.00
55277;BME280;41136;51.478;-2.610;2023-03-14T08:39:59;99525.89;;;3.46;100.00
55277;BME280;41136;51.478;-2.610;2023-03-14T08:42:25;99537.82;;;4.03;100.00
55277;BME280;41136;51.478;-2.610;2023-03-14T08:44:51;99545.07;;;4.18;100.00
55277;BME280;41136;51.478;-2.610;2023-03-14T08:47:16;99556.22;;;3.55;100.00
55277;BME280;41136;51.478;-2.610;2023-03-14T08:49:41;99565.67;;;4.46;100.00
55277;BME280;41136;51.478;-2.610;2023-03-14T08:52:07;99572.01;;;4.38;100.00
55277;BME280;41136;51.478;-2.610;2023-03-14T08:54:32;99582.69;;;3.77;100.00
55277;BME280;41136;51.478;-2.610;2023-03-14T08:56:57;99595.39;;;3.26;100.00
55277;BME280;41136;51.478;-2.610;2023-03-14T08:59:23;99604.44;;;3.72;100.00
55277;BME280;41136;51.478;-2.610;2023-03-14T09:01:49;99615.65;;;3.03;100.00
55277;BME280;41136;51.478;-2.610;2023-03-14T09:04:14;99618.02;;;3.06;100.00
55277;BME280;41136;51.478;-2.610;2023-03-14T09:06:39;99629.30;;;3.42;100.00
55277;BME280;41136;51.478;-2.610;2023-03-14T09:09:05;99623.37;;;3.46;100.00
55277;BME280;41136;51.478;-2.610;2023-03-14T09:11:31;99636.07;;;4.04;100.00
55277;BME280;41136;51.478;-2.610;2023-03-14T09:13:55;99646.03;;;4.23;100.00
55277;BME280;41136;51.478;-2.610;2023-03-14T09:16:21;99654.03;;;4.08;100.00
55277;BME280;41136;51.478;-2.610;2023-03-14T09:18:46;99661.28;;;3.70;100.00
55277;BME280;41136;51.478;-2.610;2023-03-14T09:21:12;99660.21;;;3.97;100.00
55277;BME280;41136;51.478;-2.610;2023-03-14T09:23:39;99671.58;;;3.66;100.00
55277;BME280;41136;51.478;-2.610;2023-03-14T09:26:03;99682.87;;;3.76;100.00
55277;BME280;41136;51.478;-2.610;2023-03-14T09:28:28;99687.24;;;3.46;100.00
55277;BME280;41136;51.478;-2.610;2023-03-14T09:30:54;99691.35;;;3.66;100.00
55277;BME280;41136;51.478;-2.610;2023-03-14T09:33:19;99702.76;;;3.46;100.00
55277;BME280;41136;51.478;-2.610;2023-03-14T09:35:44;99708.15;;;4.31;100.00
55277;BME280;41136;51.478;-2.610;2023-03-14T09:38:10;99716.20;;;3.95;100.00
55277;BME280;41136;51.478;-2.610;2023-03-14T09:40:37;99724.91;;;4.72;100.00
55277;BME280;41136;51.478;-2.610;2023-03-14T09:43:01;99724.09;;;4.91;100.00
55277;BME280;41136;51.478;-2.610;2023-03-14T09:45:29;99726.72;;;4.96;100.00
55277;BME280;41136;51.478;-2.610;2023-03-14T09:47:52;99731.51;;;6.39;100.00
55277;BME280;41136;51.478;-2.610;2023-03-14T09:50:17;99740.25;;;5.27;100.00
55277;BME280;41136;51.478;-2.610;2023-03-14T09:52:46;99748.37;;;5.11;100.00
55277;BME280;41136;51.478;-2.610;2023-03-14T09:55:12;99762.63;;;5.60;100.00
55277;BME280;41136;51.478;-2.610;2023-03-14T09:57:34;99764.34;;;5.58;100.00
55277;BME280;41136;51.478;-2.610;2023-03-14T10:00:03;99776.12;;;5.03;100.00
55277;BME280;41136;51.478;-2.610;2023-03-14T10:02:27;99787.53;;;3.75;100.00
55277;BME280;41136;51.478;-2.610;2023-03-14T10:04:52;99786.18;;;3.76;100.00
55277;BME280;41136;51.478;-2.610;2023-03-14T10:07:17;99793.81;;;3.80;100.00
55277;BME280;41136;51.478;-2.610;2023-03-14T10:09:43;99804.72;;;4.07;100.00
55277;BME280;41136;51.478;-2.610;2023-03-14T10:12:08;99809.57;;;4.48;100.00
55277;BME280;41136;51.478;-2.610;2023-03-14T10:14:34;99815.89;;;5.79;100.00
55277;BME280;41136;51.478;-2.610;2023-03-14T10:17:05;99826.60;;;5.71;100.00
55277;BME280;41136;51.478;-2.610;2023-03-14T10:19:23;99831.88;;;6.42;100.00
55277;BME280;41136;51.478;-2.610;2023-03-14T10:21:53;99841.26;;;5.52;100.00
55277;BME280;41136;51.478;-2.610;2023-03-14T10:24:19;99855.72;;;4.63;100.00
55277;BME280;41136;51.478;-2.610;2023-03-14T10:26:39;99873.21;;;3.15;100.00
55277;BME280;41136;51.478;-2.610;2023-03-14T10:29:10;99879.31;;;3.34;100.00
55277;BME280;41136;51.478;-2.610;2023-03-14T10:33:59;99891.62;;;4.54;100.00
55277;BME280;41136;51.478;-2.610;2023-03-14T10:36:23;99904.27;;;4.38;100.00
55277;BME280;41136;51.478;-2.610;2023-03-14T10:38:46;99913.61;;;4.69;100.00
55277;BME280;41136;51.478;-2.610;2023-03-14T10:41:17;99921.71;;;4.17;100.00
55277;BME280;41136;51.478;-2.610;2023-03-14T10:43:37;99922.18;;;4.50;100.00
55277;BME280;41136;51.478;-2.610;2023-03-14T10:46:08;99941.26;;;4.54;100.00
55277;BME280;41136;51.478;-2.610;2023-03-14T10:48:32;99947.02;;;3.64;100.00
55277;BME280;41136;51.478;-2.610;2023-03-14T10:50:56;99950.11;;;3.39;100.00
55277;BME280;41136;51.478;-2.610;2023-03-14T10:53:18;99954.41;;;3.98;100.00
55277;BME280;41136;51.478;-2.610;2023-03-14T10:55:45;99958.69;;;3.73;100.00
55277;BME280;41136;51.478;-2.610;2023-03-14T10:58:18;99959.93;;;4.76;100.00
55277;BME280;41136;51.478;-2.610;2023-03-14T11:00:35;99963.41;;;5.49;100.00
55277;BME280;41136;51.478;-2.610;2023-03-14T11:03:07;99965.58;;;5.28;100.00
55277;BME280;41136;51.478;-2.610;2023-03-14T11:05:30;99979.17;;;5.09;100.00
55277;BME280;41136;51.478;-2.610;2023-03-14T11:07:53;99980.16;;;4.60;100.00
55277;BME280;41136;51.478;-2.610;2023-03-14T11:10:20;99979.15;;;5.30;100.00
55277;BME280;41136;51.478;-2.610;2023-03-14T11:15:15;99978.18;;;5.85;96.55
55277;BME280;41136;51.478;-2.610;2023-03-14T11:17:39;99980.90;;;6.28;96.70
55277;BME280;41136;51.478;-2.610;2023-03-14T11:20:10;99983.43;;;6.48;95.56
55277;BME280;41136;51.478;-2.610;2023-03-14T11:22:30;99985.93;;;7.39;92.20
55277;BME280;41136;51.478;-2.610;2023-03-14T11:24:58;99987.98;;;6.52;90.66
55277;BME280;41136;51.478;-2.610;2023-03-14T11:27:18;99986.80;;;6.53;91.61
55277;BME280;41136;51.478;-2.610;2023-03-14T11:29:41;99997.38;;;6.06;90.36
55277;BME280;41136;51.478;-2.610;2023-03-14T11:32:12;99995.33;;;6.42;90.60
55277;BME280;41136;51.478;-2.610;2023-03-14T11:34:38;99997.81;;;6.36;86.74
55277;BME280;41136;51.478;-2.610;2023-03-14T11:37:00;100005.73;;;5.69;85.02
55277;BME280;41136;51.478;-2.610;2023-03-14T11:39:22;100006.10;;;6.28;86.77
55277;BME280;41136;51.478;-2.610;2023-03-14T11:41:49;100002.81;;;6.39;85.11
55277;BME280;41136;51.478;-2.610;2023-03-14T11:44:17;100000.79;;;7.66;84.69
55277;BME280;41136;51.478;-2.610;2023-03-14T11:46:41;100007.04;;;7.17;84.55
55277;BME280;41136;51.478;-2.610;2023-03-14T11:49:08;100008.02;;;8.03;85.96
55277;BME280;41136;51.478;-2.610;2023-03-14T11:51:31;100010.18;;;7.74;83.51
55277;BME280;41136;51.478;-2.610;2023-03-14T11:53:59;100009.64;;;7.59;82.32
55277;BME280;41136;51.478;-2.610;2023-03-14T11:56:25;100010.52;;;7.56;84.39
55277;BME280;41136;51.478;-2.610;2023-03-14T11:58:50;100016.85;;;7.33;84.35
55277;BME280;41136;51.478;-2.610;2023-03-14T12:01:11;100023.16;;;7.34;82.80
55277;BME280;41136;51.478;-2.610;2023-03-14T12:03:41;100021.57;;;7.39;82.74
55277;BME280;41136;51.478;-2.610;2023-03-14T12:06:06;100016.41;;;8.30;79.52
55277;BME280;41136;51.478;-2.610;2023-03-14T12:08:37;100020.58;;;8.00;78.86
55277;BME280;41136;51.478;-2.610;2023-03-14T12:10:53;100017.04;;;8.50;76.15
55277;BME280;41136;51.478;-2.610;2023-03-14T12:13:17;100022.45;;;8.52;74.71
55277;BME280;41136;51.478;-2.610;2023-03-14T12:15:48;100017.97;;;9.57;72.73
55277;BME280;41136;51.478;-2.610;2023-03-14T12:18:16;100023.32;;;8.89;69.68
55277;BME280;41136;51.478;-2.610;2023-03-14T12:20:36;100026.27;;;8.52;67.53
55277;BME280;41136;51.478;-2.610;2023-03-14T12:23:03;100027.08;;;7.96;67.08
55277;BME280;41136;51.478;-2.610;2023-03-14T12:25:26;100026.53;;;8.20;70.45
55277;BME280;41136;51.478;-2.610;2023-03-14T12:30:25;100030.39;;;8.70;66.21
55277;BME280;41136;51.478;-2.610;2023-03-14T12:32:40;100035.01;;;8.60;63.10
55277;BME280;41136;51.478;-2.610;2023-03-14T12:37:35;100033.93;;;8.31;64.16
55277;BME280;41136;51.478;-2.610;2023-03-14T12:40:10;100032.27;;;8.30;59.70
55277;BME280;41136;51.478;-2.610;2023-03-14T12:44:48;100036.79;;;7.57;61.30
55277;BME280;41136;51.478;-2.610;2023-03-14T12:49:37;100046.42;;;8.07;60.94
55277;BME280;41136;51.478;-2.610;2023-03-14T12:52:12;100042.07;;;8.79;60.26
55277;BME280;41136;51.478;-2.610;2023-03-14T12:54:35;100043.76;;;8.67;61.11
55277;BME280;41136;51.478;-2.610;2023-03-14T12:57:04;100046.09;;;8.48;59.60
55277;BME280;41136;51.478;-2.610;2023-03-14T12:59:28;100044.16;;;9.17;58.21
55277;BME280;41136;51.478;-2.610;2023-03-14T13:01:48;100052.74;;;9.15;57.99